This is the latest recevied weather packets stored in our database for station/object EA1FWM-12. If no packets are shown the sender has not sent any weather packets the latest 10 day(s).
| Time | Temp. | Humidity | Pressure | Rain* | Wind** | Luminosity | Snow |
|---|---|---|---|---|---|---|---|
| 1787793499 | 12.22° C | 87% | 1014.3 hPa | - | - | - | - |
| 1787792598 | 12.22° C | 87% | 1014.4 hPa | - | - | - | - |
| 1787791698 | 12.22° C | 87% | 1014.3 hPa | - | - | - | - |
| 1787790799 | 12.22° C | 87% | 1014.4 hPa | - | - | - | - |
| 1787789900 | 12.22° C | 87% | 1014.4 hPa | - | - | - | - |
| 1787788999 | 12.22° C | 87% | 1014.5 hPa | - | - | - | - |
| 1787788100 | 12.22° C | 86% | 1014.8 hPa | - | - | - | - |
| 1787787200 | 12.78° C | 87% | 1014.7 hPa | - | - | - | - |
| 1787786301 | 12.22° C | 87% | 1014.9 hPa | - | - | - | - |
| 1787784501 | 12.22° C | 87% | 1015.2 hPa | - | - | - | - |
| 1787783601 | 12.22° C | 87% | 1015.1 hPa | - | - | - | - |
| 1787782702 | 12.22° C | 87% | 1014.9 hPa | - | - | - | - |
| 1787780902 | 12.78° C | 88% | 1015.1 hPa | - | - | - | - |
| 1787780002 | 12.78° C | 88% | 1014.9 hPa | - | - | - | - |
| 1787779102 | 12.78° C | 88% | 1015.1 hPa | - | - | - | - |
| 1787777311 | 12.22° C | 89% | 1015.3 hPa | - | - | - | - |
| 1787776404 | 12.22° C | 88% | 1015 hPa | - | - | - | - |
| 1787774605 | 12.22° C | 88% | 1014.7 hPa | - | - | - | - |
| 1787772807 | 12.78° C | 87% | 1014.5 hPa | - | - | - | - |
| 1787771906 | 13.33° C | 87% | 1014.2 hPa | - | - | - | - |
| 1787771006 | 13.89° C | 87% | 1014.1 hPa | - | - | - | - |
| 1787769207 | 13.89° C | 86% | 1013.7 hPa | - | - | - | - |
| 1787767408 | 13.89° C | 85% | 1013.5 hPa | - | - | - | - |
| 1787765610 | 13.89° C | 78% | 1012.9 hPa | - | - | - | - |
| 1787761111 | 19.44° C | 64% | 1011.6 hPa | - | - | - | - |
* Rain since midnight (hover to see other rain measurements)
** Current wind speed in m/s (hover to see current wind gust speed)